createdAt,value
2019-02-15T00:01:30.652Z,102251.42
2019-02-15T00:06:32.781Z,102252.98
2019-02-15T00:11:34.883Z,102255.12
2019-02-15T00:16:37.011Z,102255.02
2019-02-15T00:21:47.157Z,102257.63
2019-02-15T00:26:49.417Z,102257.27
2019-02-15T00:31:51.514Z,102245.86
2019-02-15T00:36:53.599Z,102253.49
2019-02-15T00:41:55.864Z,102253.00
2019-02-15T00:47:17.601Z,102245.33
2019-02-15T00:52:45.071Z,102244.64
2019-02-15T00:57:54.388Z,102245.94
2019-02-15T01:03:23.778Z,102246.01
2019-02-15T01:08:45.459Z,102245.27
2019-02-15T01:13:47.592Z,102248.73
2019-02-15T01:18:49.759Z,102253.31
2019-02-15T01:23:52.003Z,102247.95
2019-02-15T01:29:16.201Z,102254.63
2019-02-15T01:34:29.338Z,102248.14
2019-02-15T01:39:51.034Z,102260.43
2019-02-15T01:45:18.759Z,102253.81
2019-02-15T01:50:20.948Z,102251.10
2019-02-15T01:55:22.993Z,102242.86
2019-02-15T02:00:28.369Z,102240.82
2019-02-15T02:05:30.452Z,102237.43
2019-02-15T02:10:35.308Z,102240.22
2019-02-15T02:15:37.356Z,102238.85
2019-02-15T02:20:39.568Z,102237.39
2019-02-15T02:25:41.622Z,102232.08
2019-02-15T02:30:43.695Z,102232.70
2019-02-15T02:35:46.007Z,102231.96
2019-02-15T02:40:48.095Z,102225.27
2019-02-15T02:45:50.112Z,102225.73
2019-02-15T02:50:52.207Z,102221.56
2019-02-15T02:55:54.260Z,102220.58
2019-02-15T03:00:56.370Z,102209.91
2019-02-15T03:05:58.413Z,102212.52
2019-02-15T03:11:00.522Z,102214.36
2019-02-15T03:16:02.544Z,102214.44
2019-02-15T03:21:04.677Z,102212.94
2019-02-15T03:26:06.741Z,102213.95
2019-02-15T03:31:08.838Z,102218.33
2019-02-15T03:36:16.977Z,102219.91
2019-02-15T03:41:29.350Z,102231.56
2019-02-15T03:46:31.479Z,102225.61
2019-02-15T03:51:33.547Z,102223.14
2019-02-15T03:56:35.607Z,102219.94
2019-02-15T04:01:37.654Z,102221.41
2019-02-15T04:06:39.715Z,102223.14
2019-02-15T04:11:41.902Z,102229.13
2019-02-15T04:16:44.172Z,102223.56
2019-02-15T04:21:46.261Z,102236.77
2019-02-15T04:26:48.346Z,102227.97
2019-02-15T04:31:50.424Z,102228.33
2019-02-15T04:36:52.529Z,102221.41
2019-02-15T04:41:55.718Z,102219.86
2019-02-15T04:46:57.796Z,102216.62
2019-02-15T04:52:02.951Z,102220.66
2019-02-15T04:57:06.303Z,102213.13
2019-02-15T05:02:08.432Z,102211.78
2019-02-15T05:07:12.750Z,102210.59
2019-02-15T05:12:16.732Z,102202.70
2019-02-15T05:17:18.888Z,102204.97
2019-02-15T05:22:21.089Z,102208.69
2019-02-15T05:27:23.152Z,102201.05
2019-02-15T05:32:25.246Z,102205.34
2019-02-15T05:37:27.519Z,102199.00
2019-02-15T05:42:29.597Z,102196.94
2019-02-15T05:47:31.660Z,102199.86
2019-02-15T05:52:33.794Z,102201.30
2019-02-15T05:57:35.898Z,102204.22
2019-02-15T06:02:38.102Z,102200.69
2019-02-15T06:07:40.256Z,102205.23
2019-02-15T06:12:42.321Z,102204.55
2019-02-15T06:17:44.416Z,102201.55
2019-02-15T06:22:46.509Z,102205.55
2019-02-15T06:27:49.217Z,102199.53
2019-02-15T06:32:51.623Z,102209.26
2019-02-15T06:37:59.297Z,102210.27
2019-02-15T06:43:01.371Z,102212.03
2019-02-15T06:48:03.512Z,102203.56
2019-02-15T06:53:05.537Z,102209.19
2019-02-15T06:58:07.568Z,102218.34
2019-02-15T07:03:16.914Z,102223.86
2019-02-15T07:08:19.001Z,102234.05
2019-02-15T07:13:21.039Z,102230.27
2019-02-15T07:18:23.128Z,102236.58
2019-02-15T07:23:25.323Z,102241.08
2019-02-15T07:28:27.397Z,102242.72
2019-02-15T07:33:29.461Z,102244.27
2019-02-15T07:38:31.790Z,102240.05
2019-02-15T07:43:33.853Z,102244.96
2019-02-15T07:48:35.969Z,102243.45
2019-02-15T07:53:38.132Z,102242.12
2019-02-15T07:58:40.213Z,102242.19
2019-02-15T08:03:42.320Z,102239.89
2019-02-15T08:08:44.384Z,102235.26
2019-02-15T08:13:46.520Z,102237.30
2019-02-15T08:18:48.723Z,102236.05
2019-02-15T08:23:50.833Z,102233.04
2019-02-15T08:28:55.333Z,102231.94
2019-02-15T08:33:57.492Z,102230.23
2019-02-15T08:38:59.590Z,102235.34
2019-02-15T08:44:01.665Z,102221.95
2019-02-15T08:49:03.798Z,102231.28
2019-02-15T08:54:05.855Z,102223.16
2019-02-15T08:59:07.943Z,102223.55
2019-02-15T09:04:10.051Z,102217.78
2019-02-15T09:09:12.175Z,102223.75
2019-02-15T09:14:14.277Z,102214.00
2019-02-15T09:19:16.670Z,102218.84
2019-02-15T09:24:18.790Z,102224.59
2019-02-15T09:29:20.862Z,102225.98
2019-02-15T09:34:22.990Z,102226.56
2019-02-15T09:39:25.035Z,102222.28
2019-02-15T09:44:27.094Z,102220.38
2019-02-15T09:49:29.149Z,102218.40
2019-02-15T09:54:31.175Z,102224.66
2019-02-15T09:59:33.242Z,102215.05
2019-02-15T10:04:35.330Z,102211.97
2019-02-15T10:09:37.353Z,102208.48
2019-02-15T10:14:39.385Z,102203.10
2019-02-15T10:19:41.548Z,102208.97
2019-02-15T10:24:43.601Z,102202.95
2019-02-15T10:29:45.670Z,102201.64
2019-02-15T10:34:47.751Z,102199.39
2019-02-15T10:39:49.804Z,102188.58
2019-02-15T10:44:51.989Z,102185.70
2019-02-15T10:49:54.058Z,102187.23
2019-02-15T10:54:56.121Z,102180.25
2019-02-15T10:59:58.227Z,102180.98
2019-02-15T11:05:00.338Z,102181.84
2019-02-15T11:10:02.482Z,102176.87
2019-02-15T11:15:05.454Z,102171.21
2019-02-15T11:20:08.802Z,102169.74
2019-02-15T11:25:10.963Z,102166.25
2019-02-15T11:30:13.330Z,102164.99
2019-02-15T11:35:15.431Z,102162.63
2019-02-15T11:40:17.479Z,102152.14
2019-02-15T11:45:22.130Z,102155.75
2019-02-15T11:50:24.270Z,102150.67
2019-02-15T11:55:26.342Z,102148.41
2019-02-15T12:00:31.656Z,102135.94
2019-02-15T12:05:36.318Z,102136.50
2019-02-15T12:10:38.494Z,102128.33
2019-02-15T12:15:40.535Z,102119.11
2019-02-15T12:20:42.697Z,102123.36
2019-02-15T12:25:44.743Z,102113.87
2019-02-15T12:30:46.908Z,102112.45
2019-02-15T12:35:49.120Z,102105.40
2019-02-15T12:40:53.650Z,102097.87
2019-02-15T12:45:55.747Z,102099.08
2019-02-15T12:50:58.128Z,102090.48
2019-02-15T12:56:00.174Z,102084.81
2019-02-15T13:01:02.286Z,102083.50
2019-02-15T13:06:04.362Z,102079.31
2019-02-15T13:11:06.741Z,102071.87
2019-02-15T13:16:08.768Z,102063.25
2019-02-15T13:21:10.901Z,102062.52
2019-02-15T13:26:12.988Z,102057.36
2019-02-15T13:31:15.033Z,102057.36
2019-02-15T13:36:17.715Z,102051.84
2019-02-15T13:41:22.140Z,102035.39
2019-02-15T13:46:29.521Z,102036.47
2019-02-15T13:51:34.492Z,102025.45
2019-02-15T13:56:36.636Z,102020.28
2019-02-15T14:01:40.575Z,102017.06
2019-02-15T14:06:47.101Z,102019.80
2019-02-15T14:11:49.221Z,102005.96
2019-02-15T14:16:51.294Z,102001.36
2019-02-15T14:21:53.432Z,101998.95
2019-02-15T14:26:56.783Z,101988.98
2019-02-15T14:31:59.334Z,101987.35
2019-02-15T14:37:01.431Z,101989.28
2019-02-15T14:42:03.555Z,101977.17
2019-02-15T14:47:08.763Z,101974.70
2019-02-15T14:52:12.190Z,101966.25
2019-02-15T14:57:14.395Z,101968.36
2019-02-15T15:02:16.676Z,101965.67
2019-02-15T15:07:18.936Z,101961.08
2019-02-15T15:12:21.262Z,101950.61
2019-02-15T15:17:23.522Z,101942.83
2019-02-15T15:22:25.736Z,101938.09
2019-02-15T15:27:30.334Z,101932.63
2019-02-15T15:32:32.797Z,101929.09
2019-02-15T15:37:35.102Z,101928.73
2019-02-15T15:42:38.522Z,101923.20
2019-02-15T15:47:40.850Z,101915.70
2019-02-15T15:52:43.222Z,101916.41
2019-02-15T15:57:45.433Z,101911.39
2019-02-15T16:02:47.726Z,101911.73
2019-02-15T16:07:52.649Z,101906.72
2019-02-15T16:12:54.910Z,101911.31
2019-02-15T16:17:57.138Z,101905.44
2019-02-15T16:22:59.674Z,101905.12
2019-02-15T16:28:04.575Z,101912.94
2019-02-15T16:33:07.146Z,101907.33
2019-02-15T16:38:09.788Z,101914.05
2019-02-15T16:43:16.261Z,101910.23
2019-02-15T16:48:18.392Z,101914.52
2019-02-15T16:53:20.668Z,101916.33
2019-02-15T16:58:22.922Z,101918.49
2019-02-15T17:03:26.208Z,101921.72
2019-02-15T17:08:34.637Z,101916.75
2019-02-15T17:13:38.167Z,101918.16
2019-02-15T17:18:51.653Z,101921.17
2019-02-15T17:23:47.508Z,101914.95
2019-02-15T17:28:51.988Z,101916.19
2019-02-15T17:33:56.827Z,101915.41
2019-02-15T17:39:00.193Z,101909.00
2019-02-15T17:44:02.314Z,101903.03
2019-02-15T17:49:04.732Z,101904.59
2019-02-15T17:54:06.953Z,101901.67
2019-02-15T17:59:09.190Z,101898.28
2019-02-15T18:04:11.468Z,101898.23
2019-02-15T18:09:17.812Z,101897.80
2019-02-15T18:14:21.469Z,101896.34
2019-02-15T18:19:25.707Z,101889.83
2019-02-15T18:24:28.236Z,101889.64
2019-02-15T18:29:32.474Z,101886.02
2019-02-15T18:34:34.777Z,101884.81
2019-02-15T18:39:37.089Z,101881.92
2019-02-15T18:44:43.414Z,101885.34
2019-02-15T18:49:47.728Z,101886.45
2019-02-15T18:54:49.911Z,101887.86
2019-02-15T18:59:52.133Z,101888.88
2019-02-15T19:04:55.247Z,101887.58
2019-02-15T19:09:57.422Z,101888.41
2019-02-15T19:15:00.808Z,101891.40
2019-02-15T19:20:05.764Z,101880.08
2019-02-15T19:25:09.528Z,101873.50
2019-02-15T19:30:16.124Z,101873.05
2019-02-15T19:35:20.189Z,101867.59
2019-02-15T19:40:22.486Z,101865.80
2019-02-15T19:45:24.698Z,101866.66
2019-02-15T19:50:26.887Z,101863.17
2019-02-15T19:55:29.135Z,101855.28
2019-02-15T20:00:31.399Z,101855.55
2019-02-15T20:05:33.620Z,101862.06
2019-02-15T20:10:37.772Z,101858.50
2019-02-15T20:15:44.243Z,101851.47
2019-02-15T20:20:46.612Z,101853.11
2019-02-15T20:25:49.001Z,101835.66
2019-02-15T20:30:51.223Z,101835.98
2019-02-15T20:35:53.564Z,101833.72
2019-02-15T20:40:57.624Z,101838.23
2019-02-15T20:46:12.977Z,101838.78
2019-02-15T20:51:15.251Z,101831.75
2019-02-15T20:56:17.468Z,101829.31
2019-02-15T21:01:19.704Z,101823.78
2019-02-15T21:06:22.062Z,101817.16
2019-02-15T21:11:24.412Z,101820.84
2019-02-15T21:16:26.538Z,101815.97
2019-02-15T21:21:30.304Z,101807.63
2019-02-15T21:26:34.388Z,101798.04
2019-02-15T21:31:36.644Z,101797.72
2019-02-15T21:36:44.454Z,101796.73
2019-02-15T21:41:46.968Z,101797.74
2019-02-15T21:46:51.990Z,101790.20
2019-02-15T21:51:55.957Z,101787.95
2019-02-15T21:57:00.843Z,101791.74
2019-02-15T22:02:06.379Z,101779.83
2019-02-15T22:07:08.603Z,101782.13
2019-02-15T22:12:12.616Z,101772.21
2019-02-15T22:17:14.829Z,101761.53
2019-02-15T22:22:21.303Z,101763.95
2019-02-15T22:27:23.494Z,101758.72
2019-02-15T22:32:29.607Z,101758.17
2019-02-15T22:37:31.797Z,101754.23
2019-02-15T22:42:35.949Z,101756.64
2019-02-15T22:47:38.127Z,101749.69
2019-02-15T22:52:42.178Z,101756.21
2019-02-15T22:57:44.351Z,101758.82
2019-02-15T23:02:48.425Z,101749.55
2019-02-15T23:07:53.296Z,101752.96
2019-02-15T23:12:57.526Z,101745.63
2019-02-15T23:18:00.063Z,101744.77
2019-02-15T23:23:04.386Z,101744.08
2019-02-15T23:28:06.746Z,101741.05
2019-02-15T23:33:08.871Z,101734.46
2019-02-15T23:38:11.143Z,101735.05
2019-02-15T23:43:13.397Z,101738.92
2019-02-15T23:48:15.525Z,101734.29
2019-02-15T23:53:17.843Z,101725.91
2019-02-15T23:58:20.089Z,101729.14
